createdAt,value
2017-10-11T00:01:27.126Z,100741.99
2017-10-11T00:03:54.672Z,100739.95
2017-10-11T00:06:22.141Z,100742.44
2017-10-11T00:08:49.609Z,100742.70
2017-10-11T00:11:17.143Z,100742.88
2017-10-11T00:13:44.596Z,100728.63
2017-10-11T00:16:12.062Z,100734.31
2017-10-11T00:18:39.611Z,100727.31
2017-10-11T00:21:07.178Z,100733.88
2017-10-11T00:23:34.635Z,100735.68
2017-10-11T00:26:02.091Z,100728.77
2017-10-11T00:28:29.554Z,100733.17
2017-10-11T00:30:57.010Z,100729.58
2017-10-11T00:33:24.473Z,100730.83
2017-10-11T00:35:52.007Z,100729.19
2017-10-11T00:38:19.516Z,100722.84
2017-10-11T00:40:46.966Z,100724.39
2017-10-11T00:43:14.438Z,100722.73
2017-10-11T00:45:41.892Z,100729.11
2017-10-11T00:48:09.408Z,100726.95
2017-10-11T00:50:36.870Z,100721.83
2017-10-11T00:53:04.418Z,100723.30
2017-10-11T00:55:31.886Z,100720.28
2017-10-11T00:57:59.475Z,100715.84
2017-10-11T01:00:26.958Z,100715.59
2017-10-11T01:02:54.468Z,100710.89
2017-10-11T01:05:21.926Z,100715.92
2017-10-11T01:07:49.389Z,100710.92
2017-10-11T01:10:16.933Z,100714.36
2017-10-11T01:12:44.484Z,100716.88
2017-10-11T01:15:11.991Z,100721.16
2017-10-11T01:17:39.513Z,100722.80
2017-10-11T01:20:07.057Z,100723.47
2017-10-11T01:22:34.512Z,100717.64
2017-10-11T01:25:02.043Z,100718.34
2017-10-11T01:27:29.508Z,100717.11
2017-10-11T01:29:57.040Z,100715.56
2017-10-11T01:32:24.504Z,100708.73
2017-10-11T01:34:52.010Z,100711.70
2017-10-11T01:37:19.569Z,100712.38
2017-10-11T01:39:47.059Z,100707.21
2017-10-11T01:42:14.511Z,100708.92
2017-10-11T01:44:41.993Z,100704.08
2017-10-11T01:47:09.480Z,100705.16
2017-10-11T01:49:36.950Z,100705.09
2017-10-11T01:52:04.455Z,100700.02
2017-10-11T01:54:31.941Z,100713.74
2017-10-11T01:56:59.435Z,100707.94
2017-10-11T01:59:27.002Z,100711.30
2017-10-11T02:01:54.510Z,100714.21
2017-10-11T02:04:21.960Z,100708.81
2017-10-11T02:06:49.443Z,100714.41
2017-10-11T02:09:16.899Z,100717.64
2017-10-11T02:11:44.380Z,100705.92
2017-10-11T02:14:11.850Z,100707.55
2017-10-11T02:16:39.388Z,100714.93
2017-10-11T02:19:06.862Z,100712.49
2017-10-11T02:21:34.316Z,100711.39
2017-10-11T02:24:01.858Z,100716.36
2017-10-11T02:26:29.325Z,100721.97
2017-10-11T02:28:56.879Z,100705.05
2017-10-11T02:31:24.378Z,100716.52
2017-10-11T02:33:51.866Z,100717.95
2017-10-11T02:36:19.344Z,100714.59
2017-10-11T02:38:46.859Z,100717.59
2017-10-11T02:41:14.326Z,100718.16
2017-10-11T02:43:41.913Z,100717.50
2017-10-11T02:46:09.388Z,100715.05
2017-10-11T02:48:36.895Z,100714.13
2017-10-11T02:51:04.361Z,100711.50
2017-10-11T02:53:31.849Z,100708.81
2017-10-11T02:55:59.410Z,100715.89
2017-10-11T02:58:26.919Z,100713.77
2017-10-11T03:00:54.441Z,100714.04
2017-10-11T03:03:21.917Z,100719.33
2017-10-11T03:05:49.396Z,100716.38
2017-10-11T03:08:16.861Z,100714.45
2017-10-11T03:10:44.371Z,100705.81
2017-10-11T03:13:11.827Z,100694.39
2017-10-11T03:15:39.317Z,100699.11
2017-10-11T03:18:06.834Z,100696.78
2017-10-11T03:20:34.321Z,100696.52
2017-10-11T03:23:01.779Z,100697.59
2017-10-11T03:25:29.268Z,100696.12
2017-10-11T03:27:57.570Z,100692.91
2017-10-11T03:30:25.126Z,100695.44
2017-10-11T03:32:52.600Z,100695.34
2017-10-11T03:35:20.086Z,100703.97
2017-10-11T03:37:47.549Z,100701.27
2017-10-11T03:40:15.046Z,100703.94
2017-10-11T03:42:42.514Z,100712.99
2017-10-11T03:45:10.068Z,100713.96
2017-10-11T03:47:37.559Z,100714.94
2017-10-11T03:50:05.020Z,100720.78
2017-10-11T03:52:32.505Z,100712.75
2017-10-11T03:54:59.986Z,100717.16
2017-10-11T03:57:27.469Z,100713.95
2017-10-11T03:59:54.999Z,100716.24
2017-10-11T04:02:22.565Z,100712.81
2017-10-11T04:04:50.044Z,100707.16
2017-10-11T04:07:17.581Z,100708.88
2017-10-11T04:09:45.045Z,100701.97
2017-10-11T04:12:12.523Z,100697.73
2017-10-11T04:14:39.998Z,100698.43
2017-10-11T04:17:07.481Z,100692.98
2017-10-11T04:19:34.970Z,100693.55
2017-10-11T04:22:02.443Z,100691.06
2017-10-11T04:24:29.909Z,100694.81
2017-10-11T04:26:57.389Z,100690.22
2017-10-11T04:29:26.159Z,100694.33
2017-10-11T04:31:53.653Z,100696.22
2017-10-11T04:34:21.117Z,100684.16
2017-10-11T04:36:48.563Z,100689.91
2017-10-11T04:39:16.051Z,100691.45
2017-10-11T04:41:43.536Z,100695.73
2017-10-11T04:44:11.021Z,100696.05
2017-10-11T04:46:38.478Z,100699.93
2017-10-11T04:49:05.983Z,100700.59
2017-10-11T04:51:33.449Z,100704.62
2017-10-11T04:54:00.923Z,100705.16
2017-10-11T04:56:28.400Z,100709.93
2017-10-11T04:58:55.972Z,100715.66
2017-10-11T05:01:23.441Z,100714.64
2017-10-11T05:03:51.069Z,100714.20
2017-10-11T05:06:18.534Z,100714.36
2017-10-11T05:08:46.014Z,100707.28
2017-10-11T05:11:13.543Z,100710.08
2017-10-11T05:13:41.044Z,100709.09
2017-10-11T05:16:08.510Z,100715.34
2017-10-11T05:18:35.996Z,100715.27
2017-10-11T05:21:03.546Z,100711.09
2017-10-11T05:23:31.089Z,100715.28
2017-10-11T05:25:58.577Z,100722.99
2017-10-11T05:28:26.056Z,100718.41
2017-10-11T05:30:53.547Z,100721.08
2017-10-11T05:33:21.116Z,100722.07
2017-10-11T05:35:48.643Z,100731.42
2017-10-11T05:38:16.137Z,100724.34
2017-10-11T05:40:43.616Z,100725.17
2017-10-11T05:43:11.122Z,100724.22
2017-10-11T05:45:38.630Z,100728.29
2017-10-11T05:48:06.151Z,100731.69
2017-10-11T05:50:33.663Z,100736.69
2017-10-11T05:53:01.121Z,100740.13
2017-10-11T05:55:28.642Z,100737.20
2017-10-11T05:57:56.140Z,100742.07
2017-10-11T06:00:23.658Z,100743.67
2017-10-11T06:02:51.152Z,100750.00
2017-10-11T06:05:18.681Z,100747.27
2017-10-11T06:07:46.167Z,100749.20
2017-10-11T06:10:13.637Z,100753.64
2017-10-11T06:12:41.132Z,100755.12
2017-10-11T06:15:08.689Z,100756.02
2017-10-11T06:17:36.159Z,100756.31
2017-10-11T06:20:03.634Z,100753.78
2017-10-11T06:22:31.134Z,100759.12
2017-10-11T06:24:59.146Z,100759.84
2017-10-11T06:27:26.648Z,100763.33
2017-10-11T06:29:54.121Z,100760.09
2017-10-11T06:32:21.602Z,100762.73
2017-10-11T06:34:49.066Z,100763.22
2017-10-11T06:37:16.567Z,100770.28
2017-10-11T06:39:44.056Z,100766.16
2017-10-11T06:42:11.538Z,100758.34
2017-10-11T06:44:39.019Z,100766.54
2017-10-11T06:47:06.483Z,100768.97
2017-10-11T06:49:33.967Z,100765.19
2017-10-11T06:52:01.469Z,100762.36
2017-10-11T06:54:28.964Z,100759.91
2017-10-11T06:56:56.445Z,100762.15
2017-10-11T06:59:23.943Z,100759.97
2017-10-11T07:01:51.404Z,100760.29
2017-10-11T07:04:18.966Z,100761.31
2017-10-11T07:06:46.465Z,100760.20
2017-10-11T07:09:13.956Z,100756.70
2017-10-11T07:11:41.421Z,100760.59
2017-10-11T07:14:08.909Z,100755.59
2017-10-11T07:16:36.368Z,100764.90
2017-10-11T07:19:03.906Z,100760.52
2017-10-11T07:21:31.382Z,100755.41
2017-10-11T07:23:58.878Z,100761.11
2017-10-11T07:26:26.365Z,100754.01
2017-10-11T07:28:53.880Z,100754.63
2017-10-11T07:31:21.356Z,100750.98
2017-10-11T07:33:48.946Z,100752.48
2017-10-11T07:36:16.429Z,100753.80
2017-10-11T07:38:43.926Z,100758.11
2017-10-11T07:41:11.418Z,100761.40
2017-10-11T07:43:38.987Z,100758.45
2017-10-11T07:46:06.474Z,100763.47
2017-10-11T07:48:33.945Z,100766.81
2017-10-11T07:51:01.458Z,100770.14
2017-10-11T07:53:28.945Z,100769.74
2017-10-11T07:55:56.435Z,100766.26
2017-10-11T07:58:23.889Z,100763.74
2017-10-11T08:00:51.392Z,100761.78
2017-10-11T08:03:18.849Z,100765.33
2017-10-11T08:05:46.337Z,100758.59
2017-10-11T08:08:13.836Z,100758.98
2017-10-11T08:10:41.328Z,100765.13
2017-10-11T08:13:08.779Z,100758.67
2017-10-11T08:15:36.316Z,100765.70
2017-10-11T08:18:03.786Z,100766.73
2017-10-11T08:20:31.261Z,100764.66
2017-10-11T08:22:58.836Z,100761.84
2017-10-11T08:25:26.400Z,100767.35
2017-10-11T08:27:53.905Z,100765.14
2017-10-11T08:30:21.409Z,100776.45
2017-10-11T08:32:48.868Z,100776.13
2017-10-11T08:35:16.355Z,100776.50
2017-10-11T08:37:43.875Z,100768.25
2017-10-11T08:40:11.342Z,100776.22
2017-10-11T08:42:38.829Z,100775.82
2017-10-11T08:45:06.294Z,100775.21
2017-10-11T08:47:33.790Z,100778.19
2017-10-11T08:50:01.239Z,100782.37
2017-10-11T08:52:28.785Z,100790.91
2017-10-11T08:54:56.235Z,100782.79
2017-10-11T08:57:23.804Z,100786.41
2017-10-11T08:59:51.264Z,100785.10
2017-10-11T09:02:18.813Z,100786.88
2017-10-11T09:04:46.274Z,100783.08
2017-10-11T09:07:13.760Z,100786.23
2017-10-11T09:09:41.294Z,100788.47
2017-10-11T09:12:08.811Z,100789.87
2017-10-11T09:14:36.277Z,100783.41
2017-10-11T09:17:03.741Z,100789.41
2017-10-11T09:19:31.205Z,100776.40
2017-10-11T09:21:58.770Z,100787.21
2017-10-11T09:24:26.246Z,100777.53
2017-10-11T09:26:53.737Z,100776.38
2017-10-11T09:29:21.285Z,100780.92
2017-10-11T09:31:48.752Z,100787.52
2017-10-11T09:34:16.253Z,100780.09
2017-10-11T09:36:43.703Z,100776.83
2017-10-11T09:39:11.176Z,100778.70
2017-10-11T09:41:38.626Z,100778.81
2017-10-11T09:44:06.137Z,100783.31
2017-10-11T09:46:33.598Z,100776.79
2017-10-11T09:49:01.099Z,100769.49
2017-10-11T09:51:28.571Z,100767.28
2017-10-11T09:53:56.109Z,100775.22
2017-10-11T09:56:23.554Z,100771.80
2017-10-11T09:58:51.038Z,100763.80
2017-10-11T10:01:18.584Z,100758.91
2017-10-11T10:03:46.142Z,100767.24
2017-10-11T10:06:13.621Z,100771.70
2017-10-11T10:08:41.098Z,100774.64
2017-10-11T10:11:08.601Z,100778.95
2017-10-11T10:13:36.076Z,100778.30
2017-10-11T10:16:03.527Z,100776.72
2017-10-11T10:18:30.996Z,100779.47
2017-10-11T10:20:58.455Z,100780.88
2017-10-11T10:23:25.953Z,100779.39
2017-10-11T10:25:53.414Z,100776.70
2017-10-11T10:28:20.888Z,100782.37
2017-10-11T10:30:48.355Z,100772.75
2017-10-11T10:33:15.843Z,100779.27
2017-10-11T10:35:43.386Z,100781.02
2017-10-11T10:38:10.869Z,100776.20
2017-10-11T10:40:38.344Z,100777.70
2017-10-11T10:43:05.825Z,100775.27
2017-10-11T10:45:33.285Z,100774.11
2017-10-11T10:48:00.764Z,100785.52
2017-10-11T10:50:28.249Z,100780.61
2017-10-11T10:52:55.709Z,100774.03
2017-10-11T10:55:23.199Z,100775.87
2017-10-11T10:57:50.701Z,100770.63
2017-10-11T11:00:18.253Z,100769.99
2017-10-11T11:02:45.713Z,100769.94
2017-10-11T11:05:13.272Z,100776.52
2017-10-11T11:07:40.741Z,100767.77
2017-10-11T11:10:08.254Z,100767.27
2017-10-11T11:12:35.754Z,100769.07
2017-10-11T11:15:03.295Z,100760.35
2017-10-11T11:17:30.762Z,100758.14
2017-10-11T11:19:58.316Z,100756.44
2017-10-11T11:22:25.801Z,100754.63
2017-10-11T11:24:53.331Z,100747.59
2017-10-11T11:27:20.883Z,100744.43
2017-10-11T11:29:48.404Z,100757.07
2017-10-11T11:32:15.944Z,100748.77
2017-10-11T11:34:43.469Z,100741.38
2017-10-11T11:37:11.036Z,100747.47
2017-10-11T11:39:38.529Z,100740.56
2017-10-11T11:42:05.995Z,100732.10
2017-10-11T11:44:33.486Z,100741.11
2017-10-11T11:47:00.967Z,100741.06
2017-10-11T11:49:28.448Z,100732.14
2017-10-11T11:51:55.899Z,100735.94
2017-10-11T11:54:23.372Z,100733.53
2017-10-11T11:56:50.837Z,100731.55
2017-10-11T11:59:18.335Z,100734.31
2017-10-11T12:01:45.805Z,100730.19
2017-10-11T12:04:13.334Z,100726.77
2017-10-11T12:06:40.801Z,100716.63
2017-10-11T12:09:08.365Z,100721.08
2017-10-11T12:11:35.845Z,100713.48
2017-10-11T12:14:03.301Z,100714.56
2017-10-11T12:16:30.843Z,100708.91
2017-10-11T12:18:58.389Z,100707.71
2017-10-11T12:21:25.889Z,100704.28
2017-10-11T12:23:53.377Z,100708.92
2017-10-11T12:26:20.865Z,100708.19
2017-10-11T12:28:48.318Z,100705.75
2017-10-11T12:31:15.889Z,100705.93
2017-10-11T12:33:43.441Z,100705.58
2017-10-11T12:36:11.001Z,100702.35
2017-10-11T12:38:38.472Z,100704.09
2017-10-11T12:41:05.949Z,100707.13
2017-10-11T12:43:33.434Z,100702.38
2017-10-11T12:46:00.915Z,100694.35
2017-10-11T12:48:28.367Z,100693.97
2017-10-11T12:50:55.842Z,100695.23
2017-10-11T12:53:23.299Z,100686.55
2017-10-11T12:55:50.847Z,100684.53
2017-10-11T12:58:18.309Z,100686.53
2017-10-11T13:00:45.883Z,100684.21
2017-10-11T13:03:13.346Z,100683.09
2017-10-11T13:05:40.821Z,100677.48
2017-10-11T13:08:08.393Z,100680.35
2017-10-11T13:10:35.886Z,100681.83
2017-10-11T13:13:03.344Z,100678.48
2017-10-11T13:15:30.918Z,100674.14
2017-10-11T13:17:58.415Z,100677.22
2017-10-11T13:20:25.878Z,100675.84
2017-10-11T13:22:53.379Z,100670.07
2017-10-11T13:25:20.855Z,100670.48
2017-10-11T13:27:48.335Z,100668.38
2017-10-11T13:30:15.861Z,100654.65
2017-10-11T13:32:43.368Z,100664.11
2017-10-11T13:35:10.850Z,100656.38
2017-10-11T13:37:38.329Z,100658.67
2017-10-11T13:40:05.894Z,100657.05
2017-10-11T13:42:33.382Z,100655.44
2017-10-11T13:45:00.902Z,100648.98
2017-10-11T13:47:28.489Z,100652.55
2017-10-11T13:49:56.023Z,100654.95
2017-10-11T13:52:23.505Z,100649.30
2017-10-11T13:54:50.975Z,100649.07
2017-10-11T13:57:18.461Z,100652.66
2017-10-11T13:59:45.943Z,100646.45
2017-10-11T14:02:13.509Z,100641.88
2017-10-11T14:04:40.964Z,100647.32
2017-10-11T14:07:08.458Z,100645.70
2017-10-11T14:09:37.838Z,100646.45
2017-10-11T14:12:05.394Z,100646.78
2017-10-11T14:14:32.853Z,100635.55
2017-10-11T14:17:00.396Z,100634.69
2017-10-11T14:19:27.861Z,100634.15
2017-10-11T14:21:55.418Z,100626.10
2017-10-11T14:24:22.877Z,100628.17
2017-10-11T14:26:50.364Z,100624.92
2017-10-11T14:29:17.827Z,100620.84
2017-10-11T14:31:45.313Z,100619.47
2017-10-11T14:34:12.764Z,100618.46
2017-10-11T14:36:40.247Z,100617.41
2017-10-11T14:39:07.721Z,100618.39
2017-10-11T14:41:35.185Z,100610.06
2017-10-11T14:44:02.675Z,100615.79
2017-10-11T14:46:30.153Z,100612.99
2017-10-11T14:48:57.654Z,100608.35
2017-10-11T14:51:25.124Z,100610.13
2017-10-11T14:53:52.610Z,100609.58
2017-10-11T14:56:20.122Z,100608.52
2017-10-11T14:58:47.596Z,100605.39
2017-10-11T15:01:15.125Z,100609.94
2017-10-11T15:03:45.773Z,100607.64
2017-10-11T15:06:13.234Z,100607.23
2017-10-11T15:08:40.712Z,100603.17
2017-10-11T15:11:08.214Z,100603.92
2017-10-11T15:13:35.700Z,100598.60
2017-10-11T15:16:03.255Z,100600.48
2017-10-11T15:18:30.768Z,100602.27
2017-10-11T15:20:58.285Z,100602.56
2017-10-11T15:23:25.838Z,100598.77
2017-10-11T15:25:53.370Z,100596.42
2017-10-11T15:28:20.854Z,100595.16
2017-10-11T15:30:48.322Z,100591.48
2017-10-11T15:33:15.847Z,100589.07
2017-10-11T15:35:43.318Z,100591.36
2017-10-11T15:38:10.787Z,100592.31
2017-10-11T15:40:38.258Z,100589.71
2017-10-11T15:43:05.805Z,100599.18
2017-10-11T15:45:33.265Z,100595.82
2017-10-11T15:48:00.789Z,100594.96
2017-10-11T15:50:28.265Z,100595.52
2017-10-11T15:52:55.813Z,100594.32
2017-10-11T15:55:23.382Z,100590.97
2017-10-11T15:57:50.929Z,100591.80
2017-10-11T16:00:18.396Z,100591.80
2017-10-11T16:02:45.949Z,100593.84
2017-10-11T16:05:13.442Z,100586.16
2017-10-11T16:07:40.926Z,100585.35
2017-10-11T16:10:08.398Z,100576.70
2017-10-11T16:12:35.973Z,100582.63
2017-10-11T16:15:03.437Z,100579.95
2017-10-11T16:17:30.941Z,100583.22
2017-10-11T16:19:58.453Z,100584.61
2017-10-11T16:22:26.014Z,100578.92
2017-10-11T16:24:53.511Z,100577.52
2017-10-11T16:27:20.971Z,100579.75
2017-10-11T16:29:48.454Z,100574.52
2017-10-11T16:32:15.932Z,100575.13
2017-10-11T16:34:43.399Z,100574.19
2017-10-11T16:37:10.951Z,100575.02
2017-10-11T16:39:38.535Z,100573.84
2017-10-11T16:42:06.075Z,100577.44
2017-10-11T16:44:33.633Z,100574.52
2017-10-11T16:47:01.092Z,100576.89
2017-10-11T16:49:28.569Z,100571.88
2017-10-11T16:51:56.025Z,100576.98
2017-10-11T16:54:23.517Z,100574.31
2017-10-11T16:56:50.970Z,100573.05
2017-10-11T16:59:18.453Z,100568.03
2017-10-11T17:01:45.941Z,100575.03
2017-10-11T17:04:13.418Z,100580.41
2017-10-11T17:06:40.903Z,100581.00
2017-10-11T17:09:08.393Z,100589.19
2017-10-11T17:11:35.873Z,100585.96
2017-10-11T17:14:03.365Z,100583.86
2017-10-11T17:16:30.819Z,100589.23
2017-10-11T17:18:58.320Z,100588.00
2017-10-11T17:21:25.808Z,100581.27
2017-10-11T17:23:53.387Z,100582.65
2017-10-11T17:26:20.928Z,100579.84
2017-10-11T17:28:48.409Z,100577.23
2017-10-11T17:31:15.869Z,100575.22
2017-10-11T17:33:43.365Z,100577.77
2017-10-11T17:36:10.829Z,100579.03
2017-10-11T17:38:38.371Z,100575.98
2017-10-11T17:41:05.869Z,100580.44
2017-10-11T17:43:33.325Z,100580.88
2017-10-11T17:46:00.851Z,100578.33
2017-10-11T17:48:28.328Z,100577.94
2017-10-11T17:50:55.863Z,100576.16
2017-10-11T17:53:23.393Z,100577.66
2017-10-11T17:55:50.878Z,100579.41
2017-10-11T17:58:18.332Z,100573.85
2017-10-11T18:00:45.805Z,100566.49
2017-10-11T18:03:13.269Z,100565.56
2017-10-11T18:05:40.746Z,100571.13
2017-10-11T18:08:08.205Z,100574.19
2017-10-11T18:10:35.681Z,100578.86
2017-10-11T18:13:03.149Z,100579.00
2017-10-11T18:15:30.643Z,100576.59
2017-10-11T18:17:58.107Z,100582.06
2017-10-11T18:20:25.651Z,100587.10
2017-10-11T18:22:53.110Z,100591.88
2017-10-11T18:25:20.682Z,100593.52
2017-10-11T18:27:48.166Z,100592.96
2017-10-11T18:30:15.649Z,100592.30
2017-10-11T18:32:43.106Z,100600.55
2017-10-11T18:35:10.604Z,100600.78
2017-10-11T18:37:38.066Z,100604.09
2017-10-11T18:40:05.558Z,100599.13
2017-10-11T18:42:33.044Z,100603.41
2017-10-11T18:45:00.584Z,100607.44
2017-10-11T18:47:28.045Z,100602.18
2017-10-11T18:49:55.558Z,100596.83
2017-10-11T18:52:23.021Z,100594.38
2017-10-11T18:54:50.487Z,100600.99
2017-10-11T18:57:17.941Z,100590.76
2017-10-11T18:59:45.397Z,100598.72
2017-10-11T19:02:12.882Z,100597.78
2017-10-11T19:04:40.432Z,100588.84
2017-10-11T19:07:07.937Z,100595.17
2017-10-11T19:09:35.380Z,100594.86
2017-10-11T19:12:02.853Z,100587.27
2017-10-11T19:14:30.429Z,100589.82
2017-10-11T19:16:57.940Z,100592.27
2017-10-11T19:19:25.401Z,100593.20
2017-10-11T19:21:52.897Z,100590.94
2017-10-11T19:24:20.447Z,100592.16
2017-10-11T19:26:47.937Z,100598.27
2017-10-11T19:29:15.387Z,100596.49
2017-10-11T19:31:42.898Z,100594.41
2017-10-11T19:34:10.354Z,100601.04
2017-10-11T19:36:37.838Z,100611.34
2017-10-11T19:39:05.333Z,100611.06
2017-10-11T19:41:32.810Z,100609.34
2017-10-11T19:44:00.317Z,100609.42
2017-10-11T19:46:27.807Z,100616.50
2017-10-11T19:48:55.274Z,100620.53
2017-10-11T19:51:22.763Z,100617.34
2017-10-11T19:53:50.237Z,100626.27
2017-10-11T19:56:17.785Z,100622.79
2017-10-11T19:58:45.270Z,100624.02
2017-10-11T20:01:12.733Z,100627.05
2017-10-11T20:03:40.242Z,100631.19
2017-10-11T20:06:07.697Z,100630.44
2017-10-11T20:08:35.194Z,100617.73
2017-10-11T20:11:02.648Z,100624.48
2017-10-11T20:13:30.138Z,100620.98
2017-10-11T20:15:57.601Z,100623.48
2017-10-11T20:18:25.055Z,100630.32
2017-10-11T20:20:52.542Z,100633.77
2017-10-11T20:23:20.045Z,100633.71
2017-10-11T20:25:47.535Z,100628.20
2017-10-11T20:28:14.993Z,100630.08
2017-10-11T20:30:42.516Z,100631.27
2017-10-11T20:33:09.997Z,100631.80
2017-10-11T20:35:37.485Z,100628.70
2017-10-11T20:38:04.973Z,100625.72
2017-10-11T20:40:32.519Z,100631.34
2017-10-11T20:42:59.963Z,100632.52
2017-10-11T20:45:27.486Z,100639.18
2017-10-11T20:47:54.982Z,100637.34
2017-10-11T20:50:22.470Z,100635.59
2017-10-11T20:52:49.944Z,100634.52
2017-10-11T20:55:17.409Z,100646.66
2017-10-11T20:57:44.888Z,100641.41
2017-10-11T21:00:12.374Z,100640.82
2017-10-11T21:02:39.849Z,100638.84
2017-10-11T21:05:07.400Z,100642.78
2017-10-11T21:07:34.877Z,100635.98
2017-10-11T21:10:02.334Z,100631.77
2017-10-11T21:12:29.812Z,100634.55
2017-10-11T21:14:57.536Z,100637.45
2017-10-11T21:17:25.087Z,100648.27
2017-10-11T21:19:52.562Z,100653.38
2017-10-11T21:22:20.058Z,100664.90
2017-10-11T21:24:47.543Z,100663.97
2017-10-11T21:27:15.108Z,100660.05
2017-10-11T21:29:42.573Z,100663.63
2017-10-11T21:32:10.134Z,100660.77
2017-10-11T21:34:37.681Z,100663.14
2017-10-11T21:37:05.244Z,100665.98
2017-10-11T21:39:32.716Z,100658.38
2017-10-11T21:42:00.174Z,100656.87
2017-10-11T21:44:27.666Z,100661.88
2017-10-11T21:46:55.111Z,100657.27
2017-10-11T21:49:22.633Z,100648.76
2017-10-11T21:51:50.237Z,100643.86
2017-10-11T21:54:17.741Z,100642.56
2017-10-11T21:56:45.183Z,100641.72
2017-10-11T21:59:12.662Z,100640.13
2017-10-11T22:01:40.162Z,100638.25
2017-10-11T22:04:07.631Z,100637.67
2017-10-11T22:06:35.093Z,100632.48
2017-10-11T22:09:02.568Z,100638.46
2017-10-11T22:11:30.053Z,100629.84
2017-10-11T22:13:57.598Z,100635.97
2017-10-11T22:16:25.063Z,100633.77
2017-10-11T22:18:52.524Z,100624.01
2017-10-11T22:21:19.991Z,100624.19
2017-10-11T22:23:47.460Z,100624.05
2017-10-11T22:26:14.943Z,100628.16
2017-10-11T22:28:42.445Z,100638.33
2017-10-11T22:31:09.917Z,100629.91
2017-10-11T22:33:37.461Z,100632.09
2017-10-11T22:36:04.982Z,100622.12
2017-10-11T22:38:32.500Z,100632.06
2017-10-11T22:40:59.981Z,100623.11
2017-10-11T22:43:27.454Z,100620.56
2017-10-11T22:45:54.917Z,100617.32
2017-10-11T22:48:22.405Z,100621.48
2017-10-11T22:50:49.855Z,100621.85
2017-10-11T22:53:17.433Z,100621.50
2017-10-11T22:55:44.972Z,100626.33
2017-10-11T22:58:12.469Z,100626.69
2017-10-11T23:00:39.915Z,100625.55
2017-10-11T23:03:07.389Z,100623.09
2017-10-11T23:05:34.865Z,100624.45
2017-10-11T23:08:02.370Z,100620.66
2017-10-11T23:10:29.823Z,100619.44
2017-10-11T23:12:57.282Z,100615.06
2017-10-11T23:15:24.831Z,100623.45
2017-10-11T23:17:52.298Z,100620.80
2017-10-11T23:20:19.812Z,100618.61
2017-10-11T23:22:47.278Z,100619.52
2017-10-11T23:25:14.753Z,100619.42
2017-10-11T23:27:42.195Z,100622.88
2017-10-11T23:30:09.658Z,100615.89
2017-10-11T23:32:37.133Z,100620.61
2017-10-11T23:35:04.621Z,100614.53
2017-10-11T23:37:32.158Z,100615.28
2017-10-11T23:39:59.700Z,100616.45
2017-10-11T23:42:27.161Z,100611.16
2017-10-11T23:44:54.622Z,100607.44
2017-10-11T23:47:22.184Z,100609.97
2017-10-11T23:49:49.647Z,100605.58
2017-10-11T23:52:17.198Z,100606.92
2017-10-11T23:54:44.658Z,100605.27
2017-10-11T23:57:12.123Z,100608.67
2017-10-11T23:59:39.585Z,100611.32
